Time;durP1;ratioP1;P1;durP2;ratioP2;P2;SDS_P1;SDS_P2;PMS_P1;PMS_P2;Temp;Humidity;BMP_temperature;BMP_pressure;BME280_temperature;BME280_humidity;BME280_pressure;Samples;Min_cycle;Max_cycle;Signal;HPM_P1;HPM_P2
2022/06/06 00:01:18;;;;;;;2.90;2.70;;;19.30;68.20;;;;;;5135750;27;20035;-68
2022/06/06 00:03:44;;;;;;;2.53;2.33;;;19.30;68.20;;;;;;5136597;27;20042;-70
2022/06/06 00:06:13;;;;;;;3.00;2.70;;;19.30;68.20;;;;;;5136569;27;20092;-70
2022/06/06 00:08:40;;;;;;;3.25;2.65;;;19.30;68.30;;;;;;5136492;27;20046;-70
2022/06/06 00:11:08;;;;;;;2.58;2.38;;;19.30;69.10;;;;;;5136546;27;20042;-69
2022/06/06 00:13:34;;;;;;;2.58;2.35;;;19.30;68.30;;;;;;5136733;27;20042;-70
2022/06/06 00:16:00;;;;;;;2.88;2.67;;;19.30;68.30;;;;;;5136429;27;20505;-69
2022/06/06 00:18:25;;;;;;;2.60;2.40;;;19.30;68.40;;;;;;5136317;27;20541;-69
2022/06/06 00:20:52;;;;;;;2.58;2.38;;;19.30;68.40;;;;;;5135914;27;20046;-69
2022/06/06 00:23:21;;;;;;;2.38;2.17;;;19.30;68.40;;;;;;5136437;27;20045;-68
2022/06/06 00:25:47;;;;;;;2.28;2.10;;;19.30;68.40;;;;;;5136100;27;20122;-69
2022/06/06 00:28:12;;;;;;;2.20;2.00;;;19.30;68.40;;;;;;5136304;27;20121;-69
2022/06/06 00:30:38;;;;;;;2.63;2.42;;;19.30;68.50;;;;;;5136057;27;20035;-69
2022/06/06 00:35:49;;;;;;;2.88;2.17;;;19.30;68.50;;;;;;5135825;27;20560;-68
2022/06/06 00:38:15;;;;;;;2.45;2.05;;;19.20;68.60;;;;;;5135732;27;20126;-68
2022/06/06 00:40:41;;;;;;;2.25;2.10;;;19.20;68.60;;;;;;5118937;27;20042;-69
2022/06/06 00:43:08;;;;;;;2.55;2.35;;;19.20;68.60;;;;;;5132124;27;20520;-69
2022/06/06 00:45:36;;;;;;;2.30;2.10;;;19.20;68.60;;;;;;5115240;27;20070;-69
2022/06/06 00:51:09;;;;;;;1.75;1.65;;;19.20;68.70;;;;;;5089398;27;20390;-67
2022/06/06 00:53:48;;;;;;;1.83;1.73;;;19.30;68.90;;;;;;5071143;28;20044;-68
2022/06/06 00:58:56;;;;;;;2.22;2.13;;;19.30;68.90;;;;;;5129770;27;20357;-69
2022/06/06 01:01:23;;;;;;;1.83;1.73;;;19.20;68.80;;;;;;5108453;28;20070;-68
2022/06/06 01:03:50;;;;;;;2.10;2.00;;;19.20;68.80;;;;;;5108398;28;20036;-67
2022/06/06 01:06:18;;;;;;;2.20;1.90;;;19.20;69.00;;;;;;5108390;28;20053;-68
2022/06/06 01:08:46;;;;;;;1.70;1.52;;;19.20;68.90;;;;;;5108333;28;20028;-68
2022/06/06 01:11:12;;;;;;;1.73;1.55;;;19.20;68.90;;;;;;5108320;28;20031;-69
2022/06/06 01:13:41;;;;;;;1.90;1.52;;;19.20;69.00;;;;;;5108134;28;20073;-68
2022/06/06 01:24:38;;;;;;;1.98;1.80;;;19.20;69.00;;;;;;5130171;27;20350;-70
2022/06/06 01:29:50;;;;;;;2.67;2.47;;;19.20;69.20;;;;;;5109765;27;20400;-69
2022/06/06 01:32:20;;;;;;;2.88;2.67;;;19.20;69.10;;;;;;5091734;28;20055;-69
2022/06/06 01:34:51;;;;;;;2.75;2.53;;;19.10;69.10;;;;;;5091622;28;20453;-69
2022/06/06 01:40:12;;;;;;;2.83;2.60;;;19.10;69.20;;;;;;5130311;27;20744;-68
2022/06/06 01:45:50;;;;;;;3.20;2.90;;;19.10;69.20;;;;;;5130905;27;20411;-70
2022/06/06 01:48:22;;;;;;;3.47;2.30;;;19.10;69.40;;;;;;5129046;27;20441;-70
2022/06/06 01:50:48;;;;;;;3.33;2.90;;;19.10;69.20;;;;;;5129228;28;20047;-67
2022/06/06 01:53:18;;;;;;;3.35;3.05;;;19.10;69.20;;;;;;5128956;28;20040;-69
2022/06/06 01:55:46;;;;;;;4.53;3.20;;;19.10;69.20;;;;;;5128838;28;20042;-68
2022/06/06 01:58:20;;;;;;;4.20;3.13;;;19.10;69.20;;;;;;5129075;28;20039;-69
2022/06/06 02:00:46;;;;;;;3.97;3.67;;;19.10;69.30;;;;;;5145958;27;20047;-68
2022/06/06 02:03:12;;;;;;;3.38;3.08;;;19.10;69.30;;;;;;5128620;28;20047;-67
2022/06/06 02:05:39;;;;;;;3.92;3.63;;;19.10;69.30;;;;;;5128684;27;20043;-68
2022/06/06 02:08:07;;;;;;;3.28;2.97;;;19.10;69.30;;;;;;5128683;27;20433;-69
2022/06/06 02:10:33;;;;;;;3.80;3.50;;;19.10;69.30;;;;;;5129765;27;20044;-69
2022/06/06 02:12:58;;;;;;;3.55;3.20;;;19.00;69.30;;;;;;5129968;28;20099;-69
2022/06/06 02:15:25;;;;;;;2.97;2.72;;;19.00;69.30;;;;;;5128433;27;20479;-67
2022/06/06 02:17:53;;;;;;;5.50;4.18;;;19.00;69.20;;;;;;5128440;28;20045;-69
2022/06/06 02:20:22;;;;;;;3.88;3.58;;;19.00;69.30;;;;;;5128640;28;20477;-69
2022/06/06 02:22:48;;;;;;;3.58;3.28;;;19.00;69.30;;;;;;5128568;27;20046;-68
2022/06/06 02:25:14;;;;;;;3.28;2.97;;;19.00;69.30;;;;;;5129444;28;20395;-69
2022/06/06 02:27:41;;;;;;;3.42;3.13;;;19.00;69.30;;;;;;5128251;28;20047;-68
2022/06/06 02:30:11;;;;;;;4.50;3.60;;;19.00;69.20;;;;;;5128190;27;20054;-68
2022/06/06 02:32:37;;;;;;;4.47;3.63;;;19.00;69.30;;;;;;5129487;27;20039;-69
2022/06/06 02:35:03;;;;;;;3.42;3.13;;;19.00;69.30;;;;;;5129304;28;20047;-69
2022/06/06 02:37:29;;;;;;;4.38;3.17;;;19.00;69.30;;;;;;5128020;27;20123;-69
2022/06/06 02:39:55;;;;;;;4.15;3.75;;;19.00;69.30;;;;;;5127889;28;20127;-69
2022/06/06 02:42:21;;;;;;;4.22;3.83;;;19.00;69.30;;;;;;5128215;27;20126;-69
2022/06/06 02:44:48;;;;;;;4.53;3.78;;;19.00;69.30;;;;;;5127580;28;20135;-69
2022/06/06 02:47:14;;;;;;;4.78;4.18;;;19.00;69.30;;;;;;5129106;27;20121;-69
2022/06/06 02:49:40;;;;;;;4.25;3.85;;;19.00;69.30;;;;;;5128328;28;20068;-68
2022/06/06 02:52:05;;;;;;;4.55;3.80;;;19.00;69.30;;;;;;5127936;28;20475;-69
2022/06/06 02:54:31;;;;;;;4.10;3.70;;;18.90;69.30;;;;;;5128485;27;20075;-68
2022/06/06 02:56:58;;;;;;;5.68;4.82;;;18.90;69.30;;;;;;5113615;28;20046;-67
2022/06/06 02:59:26;;;;;;;4.60;3.72;;;18.90;69.30;;;;;;5115195;28;20096;-69
2022/06/06 03:01:52;;;;;;;4.95;3.72;;;18.90;69.70;;;;;;5113793;28;20039;-68
2022/06/06 03:04:18;;;;;;;5.05;4.55;;;18.90;69.30;;;;;;5113875;28;20097;-68
2022/06/06 03:09:50;;;;;;;4.30;3.78;;;18.90;69.30;;;;;;5148479;27;1288947;-68
2022/06/06 03:12:55;;;;;;;4.25;3.63;;;18.80;69.30;;;;;;5153501;27;20046;-68
2022/06/06 03:21:40;;;;;;;4.57;3.90;;;19.00;69.10;;;;;;5088181;28;20438;-69
2022/06/06 03:27:11;;;;;;;4.20;3.65;;;18.90;69.10;;;;;;5150846;27;20118;-69
2022/06/06 03:35:18;;;;;;;4.32;3.85;;;18.80;69.20;;;;;;5130744;27;20350;-68
2022/06/06 03:46:13;;;;;;;3.95;3.38;;;18.80;69.30;;;;;;5130291;27;20375;-69
2022/06/06 03:49:06;;;;;;;3.40;2.85;;;18.80;69.30;;;;;;5129187;28;20035;-69
2022/06/06 03:51:59;;;;;;;3.67;3.13;;;18.70;69.20;;;;;;5128945;28;20483;-73
2022/06/06 03:54:50;;;;;;;3.80;2.85;;;18.70;69.30;;;;;;5146373;27;20078;-68
2022/06/06 03:57:19;;;;;;;4.28;2.78;;;18.70;69.30;;;;;;5128892;27;20062;-68
2022/06/06 03:59:49;;;;;;;3.63;3.03;;;18.70;69.30;;;;;;5129064;28;20114;-69
2022/06/06 04:02:18;;;;;;;3.40;3.08;;;18.70;69.20;;;;;;5128746;28;20043;-69
2022/06/06 04:04:46;;;;;;;4.13;3.67;;;18.70;69.20;;;;;;5129963;27;20044;-69
2022/06/06 04:07:12;;;;;;;6.43;3.50;;;18.70;69.20;;;;;;5128889;27;20126;-68
2022/06/06 04:09:37;;;;;;;3.53;2.90;;;18.70;69.20;;;;;;5128574;28;20455;-68
2022/06/06 04:12:29;;;;;;;4.85;3.28;;;18.70;69.10;;;;;;5128436;27;20035;-69
2022/06/06 04:23:35;;;;;;;3.67;3.03;;;18.70;69.10;;;;;;5150842;27;20110;-69
2022/06/06 04:29:15;;;;;;;2.88;2.60;;;18.70;69.10;;;;;;5109723;27;20572;-69
2022/06/06 04:37:24;;;;;;;3.97;2.83;;;18.60;69.10;;;;;;5130391;27;20399;-68
2022/06/06 04:48:19;;;;;;;3.20;2.70;;;18.60;69.00;;;;;;5089535;27;20397;-68
2022/06/06 04:50:45;;;;;;;4.43;3.30;;;18.60;68.90;;;;;;5088284;28;20047;-68
2022/06/06 04:53:17;;;;;;;4.40;4.00;;;18.60;68.90;;;;;;5105760;28;20044;-68
2022/06/06 04:55:46;;;;;;;3.80;3.15;;;18.60;68.90;;;;;;5088865;28;20047;-68
2022/06/06 04:58:13;;;;;;;4.30;3.60;;;18.60;68.90;;;;;;5089590;28;20450;-69
2022/06/06 05:00:40;;;;;;;4.50;3.67;;;18.60;68.80;;;;;;5087912;28;20040;-67
2022/06/06 05:03:06;;;;;;;4.22;2.95;;;18.60;68.80;;;;;;5088200;28;20032;-68
2022/06/06 05:05:47;;;;;;;4.13;3.72;;;18.60;68.80;;;;;;5087810;28;20043;-69
2022/06/06 05:13:52;;;;;;;4.03;3.63;;;18.60;68.70;;;;;;5130314;27;20407;-68
2022/06/06 05:19:38;;;;;;;5.18;3.22;;;18.50;68.60;;;;;;5130245;27;20373;-67
2022/06/06 05:27:56;;;;;;;3.78;3.08;;;18.60;68.60;;;;;;5111231;27;1167440;-69
2022/06/06 05:33:37;;;;;;;3.67;3.00;;;18.60;68.40;;;;;;5130326;27;20744;-70
2022/06/06 05:39:12;;;;;;;3.30;2.70;;;18.50;68.30;;;;;;5130219;27;20414;-69
2022/06/06 06:01:21;;;;;;;4.32;3.60;;;18.60;67.90;;;;;;5130317;27;20357;-69
2022/06/06 06:04:27;;;;;;;2.90;2.60;;;18.60;67.70;;;;;;5130301;27;20122;-69
2022/06/06 06:17:40;;;;;;;4.55;3.15;;;18.70;67.70;;;;;;5130202;27;20410;-69
2022/06/06 06:20:10;;;;;;;5.88;3.40;;;18.80;67.30;;;;;;5129207;28;20130;-69
2022/06/06 06:22:51;;;;;;;3.65;2.85;;;18.70;67.10;;;;;;5128974;28;20478;-69
2022/06/06 06:25:19;;;;;;;3.22;2.92;;;18.70;67.00;;;;;;5129188;28;20043;-67
2022/06/06 06:27:47;;;;;;;2.97;2.63;;;18.80;67.00;;;;;;5130075;27;20116;-69
2022/06/06 06:30:13;;;;;;;5.07;3.08;;;18.80;66.90;;;;;;5128873;28;20326;-69
2022/06/06 06:33:19;;;;;;;5.13;3.25;;;18.80;66.80;;;;;;5129984;27;20062;-67
2022/06/06 06:38:52;;;;;;;3.25;2.65;;;18.90;66.60;;;;;;5130246;27;20739;-69
2022/06/06 06:41:32;;;;;;;5.18;3.13;;;18.90;66.60;;;;;;5129011;28;20092;-68
2022/06/06 06:49:35;;;;;;;3.85;2.67;;;18.90;66.40;;;;;;5130263;27;20354;-69
2022/06/06 06:52:13;;;;;;;3.88;3.13;;;18.90;66.30;;;;;;5129042;28;20047;-69
2022/06/06 07:00:16;;;;;;;3.88;2.78;;;18.90;66.20;;;;;;5152137;27;1184753;-69
2022/06/06 07:08:44;;;;;;;4.80;2.73;;;18.90;66.20;;;;;;5152967;27;1163475;-69
2022/06/06 07:16:32;;;;;;;4.70;2.90;;;19.00;65.80;;;;;;5153134;27;1154704;-68
2022/06/06 07:19:09;;;;;;;4.70;3.45;;;19.10;65.60;;;;;;5171489;27;20300;-68
2022/06/06 07:21:36;;;;;;;4.10;3.35;;;19.00;65.60;;;;;;5153021;27;20494;-68
2022/06/06 07:24:05;;;;;;;6.00;3.65;;;19.00;65.60;;;;;;5153173;27;20050;-69
2022/06/06 07:26:37;;;;;;;4.50;3.38;;;19.00;65.70;;;;;;5153165;27;20099;-70
2022/06/06 07:29:05;;;;;;;5.97;3.75;;;19.00;65.70;;;;;;5153186;27;20046;-68
2022/06/06 07:34:47;;;;;;;4.83;3.30;;;18.90;65.70;;;;;;5127516;27;1855058;-68
2022/06/06 07:37:48;;;;;;;6.60;3.22;;;19.00;65.70;;;;;;5152809;27;20117;-70
2022/06/06 07:46:10;;;;;;;4.20;3.67;;;19.00;65.50;;;;;;5130123;27;20365;-69
2022/06/06 07:57:13;;;;;;;4.53;3.08;;;19.00;65.40;;;;;;5089288;27;20448;-68
2022/06/06 08:02:51;;;;;;;3.83;3.17;;;19.10;65.30;;;;;;5130633;27;20946;-68
2022/06/06 08:10:45;;;;;;;3.10;2.53;;;19.10;65.10;;;;;;5089282;27;20133;-69
2022/06/06 08:21:44;;;;;;;3.80;2.53;;;19.30;64.30;;;;;;5153038;27;1154981;-68
2022/06/06 08:24:15;;;;;;;2.13;1.92;;;19.40;64.00;;;;;;5152658;27;20683;-69
2022/06/06 08:26:50;;;;;;;3.25;2.00;;;19.40;63.80;;;;;;5153155;27;20054;-69
2022/06/06 08:29:16;;;;;;;2.63;1.80;;;19.50;63.70;;;;;;5153330;27;20379;-69
2022/06/06 08:31:42;;;;;;;2.55;1.90;;;19.50;63.50;;;;;;5152956;27;20064;-68
2022/06/06 08:34:08;;;;;;;2.40;2.03;;;19.50;63.30;;;;;;5153201;27;20117;-68
2022/06/06 08:37:10;;;;;;;2.80;2.03;;;19.60;63.20;;;;;;5152803;27;20042;-69
2022/06/06 08:53:44;;;;;;;2.78;2.40;;;19.70;62.90;;;;;;5129464;27;1175102;-68
2022/06/06 09:10:51;;;;;;;4.00;2.00;;;20.30;60.70;;;;;;5130162;27;20406;-69
2022/06/06 09:13:57;;;;;;;2.63;1.45;;;20.20;60.70;;;;;;5128744;28;20058;-68
2022/06/06 09:22:29;;;;;;;3.00;1.60;;;20.30;60.10;;;;;;5130267;27;20406;-69
2022/06/06 09:25:34;;;;;;;2.03;1.25;;;20.40;60.00;;;;;;5128516;28;20047;-73
2022/06/06 09:39:45;;;;;;;2.28;1.50;;;20.50;59.50;;;;;;5130193;27;20403;-68
2022/06/06 09:42:44;;;;;;;2.78;1.15;;;20.50;59.50;;;;;;5128755;28;20043;-68
2022/06/06 09:59:58;;;;;;;2.38;0.73;;;20.80;58.40;;;;;;5150940;27;20125;-68
2022/06/06 10:03:01;;;;;;;1.33;1.00;;;20.70;58.50;;;;;;5129160;28;20187;-68
2022/06/06 10:42:32;;;;;;;2.10;0.73;;;20.20;59.50;;;;;;5089316;27;20766;-69
2022/06/06 11:22:06;;;;;;;1.92;0.80;;;19.50;61.20;;;;;;5130134;27;20406;-70
2022/06/06 11:24:40;;;;;;;1.02;0.30;;;19.40;61.40;;;;;;5128902;28;20052;-70
2022/06/06 11:33:11;;;;;;;0.82;0.40;;;19.40;61.50;;;;;;5192841;27;20105;-68
2022/06/06 11:36:01;;;;;;;1.40;0.40;;;19.40;61.50;;;;;;5152654;27;20042;-69
2022/06/06 11:44:48;;;;;;;1.45;0.40;;;19.30;61.70;;;;;;5130253;27;20399;-68
2022/06/06 11:58:59;;;;;;;1.42;0.47;;;19.20;62.10;;;;;;5089295;27;20183;-71
2022/06/06 12:02:04;;;;;;;1.40;0.50;;;19.30;61.90;;;;;;5087865;28;20083;-70
2022/06/06 12:16:10;;;;;;;1.25;0.50;;;19.50;61.60;;;;;;5130367;27;20353;-70
2022/06/06 12:24:34;;;;;;;0.82;0.40;;;19.60;61.40;;;;;;5130248;27;20411;-69
2022/06/06 12:30:32;;;;;;;1.27;0.30;;;19.70;61.20;;;;;;5089357;28;20356;-68
2022/06/06 12:33:02;;;;;;;1.38;0.43;;;19.80;61.40;;;;;;5089156;28;20044;-67
2022/06/06 13:05:02;;;;;;;0.50;0.40;;;20.00;60.10;;;;;;5089490;27;20352;-69
2022/06/06 13:07:43;;;;;;;0.82;0.30;;;20.00;60.00;;;;;;5087770;28;20496;-68
2022/06/06 13:13:51;;;;;;;0.50;0.20;;;20.10;60.00;;;;;;5130059;27;20921;-69
2022/06/06 13:22:05;;;;;;;0.60;0.30;;;20.10;60.00;;;;;;5130268;27;20383;-68
2022/06/06 13:27:34;;;;;;;1.00;0.30;;;20.10;59.80;;;;;;5130238;27;20407;-68
2022/06/06 13:30:22;;;;;;;0.70;0.70;;;20.10;59.80;;;;;;5112399;28;20550;-68
2022/06/06 13:33:17;;;;;;;1.13;0.30;;;20.00;59.80;;;;;;5128680;27;20096;-69
2022/06/06 13:39:13;;;;;;;1.10;0.30;;;20.00;59.90;;;;;;5130208;27;20354;-68
2022/06/06 13:42:10;;;;;;;0.47;0.20;;;20.00;59.90;;;;;;5146374;27;20115;-69
2022/06/06 13:44:54;;;;;;;0.40;0.30;;;19.90;59.90;;;;;;5129113;27;20047;-68
2022/06/06 13:53:41;;;;;;;0.75;0.30;;;19.90;60.00;;;;;;5151308;27;20562;-69
2022/06/06 13:56:32;;;;;;;0.90;0.28;;;19.80;60.00;;;;;;5128850;28;20057;-69
2022/06/06 14:10:16;;;;;;;0.40;0.20;;;19.80;60.50;;;;;;5151060;27;20195;-69
2022/06/06 14:13:07;;;;;;;0.98;0.20;;;19.70;60.70;;;;;;5128837;28;20039;-67
2022/06/06 14:15:42;;;;;;;0.68;0.30;;;19.70;60.80;;;;;;5127811;28;20134;-69
2022/06/06 14:18:13;;;;;;;1.35;0.40;;;19.60;60.80;;;;;;5130510;27;20048;-67
2022/06/06 14:20:47;;;;;;;0.93;0.30;;;19.60;60.90;;;;;;5128867;28;20039;-69
2022/06/06 14:26:12;;;;;;;1.02;0.30;;;19.60;61.00;;;;;;5089499;27;20413;-68
2022/06/06 14:28:41;;;;;;;0.57;0.30;;;19.60;61.30;;;;;;5088474;28;20044;-69
2022/06/06 14:34:31;;;;;;;0.82;0.30;;;19.60;61.60;;;;;;5150912;27;20543;-69
2022/06/06 14:37:05;;;;;;;;;;;19.50;61.50;;;;;;5129641;28;20047;-70
2022/06/06 14:39:32;;;;;;;2.05;0.30;;;19.50;61.60;;;;;;5128937;28;20379;-70
2022/06/06 14:42:05;;;;;;;0.98;0.40;;;19.50;61.70;;;;;;5130028;28;20114;-69
2022/06/06 14:44:41;;;;;;;0.82;0.22;;;19.40;61.90;;;;;;5108556;28;20122;-69
2022/06/06 14:47:22;;;;;;;1.17;0.32;;;19.40;62.00;;;;;;5108273;28;20035;-69
2022/06/06 14:52:39;;;;;;;0.55;0.20;;;19.40;62.30;;;;;;5108002;28;20044;-69
2022/06/06 14:55:07;;;;;;;0.82;0.40;;;19.30;62.30;;;;;;5109320;28;20395;-70
2022/06/06 14:57:34;;;;;;;1.73;0.40;;;19.30;62.50;;;;;;5109464;28;20055;-69
2022/06/06 15:00:03;;;;;;;1.15;0.20;;;19.20;62.50;;;;;;5107931;28;20051;-69
2022/06/06 15:02:30;;;;;;;0.60;0.22;;;19.30;62.70;;;;;;5108003;28;20043;-69
2022/06/06 15:05:13;;;;;;;0.82;0.30;;;19.20;62.80;;;;;;5107855;28;20039;-69
2022/06/06 15:07:51;;;;;;;0.90;0.30;;;19.20;62.90;;;;;;5107905;28;20043;-69
2022/06/06 15:10:28;;;;;;;0.68;0.30;;;19.20;63.00;;;;;;5107751;28;20593;-70
2022/06/06 15:12:55;;;;;;;1.60;0.30;;;19.10;63.10;;;;;;5107784;28;20500;-70
2022/06/06 15:15:23;;;;;;;1.60;0.35;;;19.10;63.20;;;;;;5107619;28;20039;-70
2022/06/06 15:17:50;;;;;;;0.50;0.30;;;19.10;63.30;;;;;;5107964;28;20105;-70
2022/06/06 15:23:01;;;;;;;0.63;0.30;;;19.00;63.40;;;;;;5089335;28;20438;-70
2022/06/06 15:25:38;;;;;;;0.80;0.35;;;19.00;63.70;;;;;;5088400;28;20048;-71
2022/06/06 15:28:18;;;;;;;0.75;0.35;;;19.00;63.90;;;;;;5088088;28;20080;-72
2022/06/06 15:30:55;;;;;;;0.95;0.30;;;18.90;63.80;;;;;;5088061;28;20036;-70
2022/06/06 15:37:02;;;;;;;0.60;0.25;;;18.90;64.10;;;;;;5130007;27;20390;-71
2022/06/06 15:42:43;;;;;;;1.05;0.30;;;18.90;64.20;;;;;;5089391;27;20417;-70
2022/06/06 15:48:37;;;;;;;1.30;0.10;;;18.80;64.30;;;;;;5089272;28;20394;-70
2022/06/06 15:56:55;;;;;;;4.32;0.40;;;18.80;64.20;;;;;;5130509;27;20566;-70
2022/06/06 16:04:57;;;;;;;1.73;0.22;;;18.70;64.40;;;;;;5130287;27;20353;-69
2022/06/06 16:10:33;;;;;;;0.38;0.20;;;18.70;64.50;;;;;;5089331;27;20863;-70
2022/06/06 16:16:11;;;;;;;1.02;0.20;;;18.70;64.50;;;;;;5130274;27;20944;-70
2022/06/06 16:18:50;;;;;;;0.60;0.15;;;18.70;64.60;;;;;;5163377;27;20097;-70
2022/06/06 16:21:20;;;;;;;0.47;0.20;;;18.60;64.60;;;;;;5130470;27;20035;-70
2022/06/06 16:26:30;;;;;;;0.38;0.20;;;18.60;64.70;;;;;;5130288;27;20407;-70
2022/06/06 16:29:01;;;;;;;1.10;0.40;;;18.60;64.70;;;;;;5129184;28;20039;-70
2022/06/06 16:31:35;;;;;;;;;;;18.60;64.80;;;;;;5129450;28;20039;-70
2022/06/06 16:39:56;;;;;;;0.40;0.20;;;18.60;64.90;;;;;;5152583;27;1167978;-70
2022/06/06 16:54:06;;;;;;;0.40;0.10;;;18.50;65.00;;;;;;5089411;28;20417;-69
2022/06/06 17:02:18;;;;;;;0.90;0.20;;;18.40;65.40;;;;;;5130342;27;20400;-68
2022/06/06 17:04:49;;;;;;;0.40;0.15;;;18.40;65.40;;;;;;5130220;27;20390;-71
2022/06/06 17:07:56;;;;;;;0.75;0.20;;;18.40;65.50;;;;;;5129195;28;20130;-70
2022/06/06 17:10:32;;;;;;;0.30;0.20;;;18.40;65.60;;;;;;5128708;28;20541;-70
2022/06/06 17:12:59;;;;;;;0.65;0.10;;;18.30;65.60;;;;;;5128829;28;20032;-68
2022/06/06 17:18:26;;;;;;;0.38;0.10;;;18.40;65.60;;;;;;5130283;27;20354;-70
2022/06/06 17:20:57;;;;;;;0.65;0.22;;;18.30;65.60;;;;;;5146285;27;20039;-70
2022/06/06 17:23:27;;;;;;;0.50;0.20;;;18.30;65.60;;;;;;5129229;28;20028;-71
2022/06/06 17:25:53;;;;;;;;;;;18.30;65.70;;;;;;5129540;27;20043;-71
2022/06/06 17:34:03;;;;;;;0.90;0.10;;;18.30;65.80;;;;;;5130455;27;20756;-70
2022/06/06 17:39:23;;;;;;;0.30;0.10;;;18.30;65.80;;;;;;5130253;27;20773;-70
2022/06/06 17:45:28;;;;;;;0.40;0.20;;;18.20;65.80;;;;;;5152454;27;1166706;-70
2022/06/06 17:54:16;;;;;;;1.10;0.10;;;18.20;65.80;;;;;;5130408;27;20503;-70
2022/06/06 18:02:51;;;;;;;0.43;0.20;;;18.20;66.00;;;;;;5130360;27;20756;-70
2022/06/06 18:05:36;;;;;;;0.68;0.10;;;18.20;66.00;;;;;;5128631;28;20036;-71
2022/06/06 18:11:09;;;;;;;1.42;0.10;;;18.20;66.00;;;;;;5130268;27;20358;-69
2022/06/06 18:16:46;;;;;;;0.40;0.10;;;18.20;66.00;;;;;;5089330;28;20438;-70
2022/06/06 18:19:21;;;;;;;0.30;0.10;;;18.10;65.90;;;;;;5089300;28;20427;-70
2022/06/06 18:21:48;;;;;;;0.35;0.10;;;18.10;65.90;;;;;;5088063;28;20049;-71
2022/06/06 18:27:35;;;;;;;0.57;0.20;;;18.10;66.00;;;;;;5130205;27;20403;-70
2022/06/06 18:30:07;;;;;;;0.60;0.20;;;18.10;66.00;;;;;;5129320;28;20100;-70
2022/06/06 18:32:38;;;;;;;0.98;0.20;;;18.10;66.00;;;;;;5128954;27;20039;-70
2022/06/06 18:40:58;;;;;;;0.88;0.20;;;18.00;66.00;;;;;;5089306;27;20376;-71
2022/06/06 18:49:07;;;;;;;1.33;0.20;;;18.10;66.10;;;;;;5089463;28;20417;-71
2022/06/06 18:51:39;;;;;;;0.63;0.15;;;18.00;66.10;;;;;;5088344;28;20044;-70
2022/06/06 18:54:15;;;;;;;0.28;0.17;;;18.00;66.10;;;;;;5089383;28;20411;-67
2022/06/06 19:02:32;;;;;;;0.40;0.20;;;18.00;66.00;;;;;;5150977;27;20134;-70
2022/06/06 19:05:01;;;;;;;0.75;0.20;;;18.00;66.20;;;;;;5128828;28;20111;-69
2022/06/06 19:07:37;;;;;;;0.88;0.28;;;18.00;66.10;;;;;;5129212;28;20093;-70
2022/06/06 19:13:21;;;;;;;0.68;0.30;;;18.00;66.10;;;;;;5133387;27;1187107;-69
2022/06/06 19:15:48;;;;;;;0.60;0.20;;;17.90;66.10;;;;;;5153209;27;20050;-69
2022/06/06 19:21:05;;;;;;;0.75;0.32;;;17.90;66.10;;;;;;5130414;27;20426;-69
2022/06/06 19:23:44;;;;;;;0.65;0.30;;;17.90;66.20;;;;;;5130231;27;20068;-70
2022/06/06 19:29:00;;;;;;;0.70;0.20;;;17.90;66.20;;;;;;5127292;27;1856321;-68
2022/06/06 19:37:19;;;;;;;0.70;0.30;;;18.00;66.10;;;;;;5130358;27;20772;-69
2022/06/06 19:39:56;;;;;;;0.50;0.20;;;17.90;66.20;;;;;;5129281;28;20067;-69
2022/06/06 19:42:47;;;;;;;0.70;0.30;;;17.90;66.20;;;;;;5128815;28;20499;-68
2022/06/06 19:48:04;;;;;;;0.50;0.20;;;17.90;66.20;;;;;;5130316;27;20728;-68
2022/06/06 19:53:36;;;;;;;1.10;0.32;;;17.80;66.20;;;;;;5130353;27;20410;-69
2022/06/06 19:56:11;;;;;;;0.70;0.20;;;17.80;66.20;;;;;;5129299;28;20047;-68
2022/06/06 19:58:39;;;;;;;0.75;0.30;;;17.80;66.20;;;;;;5128816;28;20036;-69
2022/06/06 20:01:05;;;;;;;0.85;0.40;;;17.80;66.20;;;;;;5129358;27;20460;-67
2022/06/06 20:03:36;;;;;;;0.50;0.30;;;17.80;66.20;;;;;;5129383;28;20432;-69
2022/06/06 20:06:14;;;;;;;0.65;0.30;;;17.80;66.20;;;;;;5128808;28;20092;-69
2022/06/06 20:08:39;;;;;;;1.13;0.38;;;17.80;66.20;;;;;;5129019;28;20066;-69
2022/06/06 20:16:32;;;;;;;1.83;0.45;;;17.80;66.20;;;;;;5089255;28;20385;-68
2022/06/06 20:19:02;;;;;;;1.97;0.40;;;17.80;66.30;;;;;;5088105;28;20503;-69
2022/06/06 20:21:32;;;;;;;1.02;0.40;;;17.80;66.30;;;;;;5089311;28;20497;-69
2022/06/06 20:24:01;;;;;;;0.50;0.25;;;17.80;66.30;;;;;;5088047;28;20119;-68
2022/06/06 20:26:29;;;;;;;1.15;0.40;;;17.70;66.30;;;;;;5088100;28;20037;-66
2022/06/06 20:28:58;;;;;;;0.90;0.40;;;17.70;66.30;;;;;;5088191;28;20037;-68
2022/06/06 20:34:35;;;;;;;1.58;0.50;;;17.70;66.30;;;;;;5087833;28;20083;-66
2022/06/06 20:37:12;;;;;;;1.63;0.40;;;17.70;66.30;;;;;;5089363;28;20141;-68
2022/06/06 20:45:16;;;;;;;1.33;0.50;;;17.70;66.30;;;;;;5150995;27;20570;-68
2022/06/06 20:47:49;;;;;;;1.25;0.47;;;17.70;66.30;;;;;;5129222;28;20043;-69
2022/06/06 20:50:27;;;;;;;0.57;0.30;;;17.70;66.40;;;;;;5128960;28;20035;-69
2022/06/06 20:52:59;;;;;;;0.88;0.30;;;17.70;66.40;;;;;;5129056;28;20049;-69
2022/06/06 20:55:31;;;;;;;0.95;0.32;;;17.70;66.30;;;;;;5128860;28;20043;-67
2022/06/06 20:58:02;;;;;;;1.67;0.45;;;17.70;66.40;;;;;;5128745;28;20057;-69
2022/06/06 21:00:31;;;;;;;0.75;0.43;;;17.60;66.30;;;;;;5130060;27;20049;-69
2022/06/06 21:02:58;;;;;;;1.85;0.40;;;17.60;66.30;;;;;;5129897;27;20097;-68
2022/06/06 21:05:25;;;;;;;1.15;0.73;;;17.60;66.30;;;;;;5128720;28;20130;-67
2022/06/06 21:07:51;;;;;;;0.88;0.40;;;17.60;66.30;;;;;;5130006;27;20122;-69
2022/06/06 21:10:26;;;;;;;0.80;0.38;;;17.60;66.40;;;;;;5129793;27;20063;-69
2022/06/06 21:12:53;;;;;;;2.35;0.40;;;17.60;66.40;;;;;;5128685;28;20046;-67
2022/06/06 21:15:23;;;;;;;0.93;0.50;;;17.60;66.30;;;;;;5128724;28;20047;-69
2022/06/06 21:17:49;;;;;;;0.93;0.30;;;17.60;66.30;;;;;;5129602;27;20092;-66
2022/06/06 21:20:18;;;;;;;1.10;0.50;;;17.60;66.40;;;;;;5128396;28;20614;-69
2022/06/06 21:22:46;;;;;;;1.58;0.60;;;17.60;66.30;;;;;;5128420;28;20100;-67
2022/06/06 21:25:15;;;;;;;1.38;0.50;;;17.60;66.30;;;;;;5128550;28;20088;-69
2022/06/06 21:27:40;;;;;;;1.10;0.55;;;17.50;66.30;;;;;;5128140;28;20065;-68
2022/06/06 21:30:07;;;;;;;1.98;0.50;;;17.60;66.40;;;;;;5129669;28;20065;-69
2022/06/06 21:32:33;;;;;;;1.73;0.40;;;17.60;66.40;;;;;;5129673;27;20043;-69
2022/06/06 21:34:58;;;;;;;1.55;0.50;;;17.60;66.40;;;;;;5129435;28;20042;-71
2022/06/06 21:37:24;;;;;;;2.05;0.57;;;17.60;66.30;;;;;;5129293;28;20027;-68
2022/06/06 21:39:50;;;;;;;1.17;0.30;;;17.60;66.30;;;;;;5129251;27;20039;-67
2022/06/06 21:42:16;;;;;;;0.88;0.40;;;17.60;66.40;;;;;;5129076;27;20042;-69
2022/06/06 21:44:43;;;;;;;0.95;0.40;;;17.60;66.30;;;;;;5127467;28;20051;-70
2022/06/06 21:47:09;;;;;;;1.00;0.60;;;17.50;66.30;;;;;;5126514;28;20069;-69
2022/06/06 21:49:36;;;;;;;1.10;0.55;;;17.50;66.30;;;;;;5126161;28;20118;-68
2022/06/06 21:52:03;;;;;;;1.35;0.40;;;17.50;66.20;;;;;;5127476;27;20047;-68
2022/06/06 21:54:29;;;;;;;1.52;0.50;;;17.50;66.30;;;;;;5124165;27;20043;-68
2022/06/06 21:56:58;;;;;;;1.65;0.43;;;17.50;66.20;;;;;;5113486;28;20035;-69
2022/06/06 21:59:28;;;;;;;1.35;0.50;;;17.60;66.30;;;;;;5112569;28;20051;-67
2022/06/06 22:01:56;;;;;;;0.85;0.43;;;17.50;66.20;;;;;;5114240;28;20068;-69
2022/06/06 22:04:24;;;;;;;1.42;0.50;;;17.50;66.20;;;;;;5115019;28;20488;-69
2022/06/06 22:06:51;;;;;;;2.65;0.63;;;17.50;66.20;;;;;;5115161;28;20511;-68
2022/06/06 22:09:19;;;;;;;2.00;0.60;;;17.50;66.20;;;;;;5115009;28;20032;-68
2022/06/06 22:11:45;;;;;;;2.08;1.30;;;17.50;66.30;;;;;;5115064;28;20044;-68
2022/06/06 22:14:12;;;;;;;2.05;0.43;;;17.50;66.30;;;;;;5113884;28;20050;-69
2022/06/06 22:16:39;;;;;;;1.33;0.50;;;17.50;66.20;;;;;;5113585;28;20487;-69
2022/06/06 22:19:07;;;;;;;1.10;0.60;;;17.50;66.20;;;;;;5114965;28;20116;-69
2022/06/06 22:21:34;;;;;;;2.10;0.68;;;17.50;66.20;;;;;;5113837;28;20039;-69
2022/06/06 22:24:01;;;;;;;1.65;0.70;;;17.50;66.20;;;;;;5113300;28;20044;-67
2022/06/06 22:26:28;;;;;;;1.08;0.60;;;17.40;66.20;;;;;;5113724;28;20387;-67
2022/06/06 22:28:54;;;;;;;1.65;0.80;;;17.40;66.20;;;;;;5114769;28;20043;-68
2022/06/06 22:31:20;;;;;;;1.75;0.40;;;17.50;66.20;;;;;;5113332;28;20049;-69
2022/06/06 22:33:47;;;;;;;2.65;0.80;;;17.50;66.20;;;;;;5114551;28;20488;-69
2022/06/06 22:36:13;;;;;;;1.85;0.70;;;17.40;66.20;;;;;;5113524;28;20055;-67
2022/06/06 22:38:41;;;;;;;1.58;0.82;;;17.40;66.10;;;;;;5114502;28;20039;-69
2022/06/06 22:41:13;;;;;;;1.67;0.60;;;17.40;66.20;;;;;;5113298;28;20058;-69
2022/06/06 22:43:39;;;;;;;3.03;1.23;;;17.40;66.20;;;;;;5103818;28;20127;-67
2022/06/06 22:46:05;;;;;;;1.20;0.60;;;17.40;66.20;;;;;;5092784;28;20451;-69
2022/06/06 22:48:31;;;;;;;1.40;0.52;;;17.40;66.20;;;;;;5094130;28;20492;-69
2022/06/06 22:50:57;;;;;;;2.15;0.70;;;17.50;66.30;;;;;;5092655;28;20071;-67
2022/06/06 22:53:27;;;;;;;1.95;0.60;;;17.40;66.20;;;;;;5092478;28;20040;-67
2022/06/06 22:56:03;;;;;;;1.42;0.68;;;17.40;66.20;;;;;;5092788;28;20036;-66